createdAt,value
2022-12-11T00:00:26.127Z,71.42
2022-12-11T00:02:29.807Z,71.19
2022-12-11T00:04:34.143Z,70.91
2022-12-11T00:06:36.941Z,71.79
2022-12-11T00:08:40.203Z,71.59
2022-12-11T00:10:48.624Z,71.94
2022-12-11T00:12:51.424Z,71.94
2022-12-11T00:14:54.226Z,71.53
2022-12-11T00:16:57.081Z,71.82
2022-12-11T00:19:00.123Z,71.40
2022-12-11T00:21:05.369Z,71.78
2022-12-11T00:23:08.135Z,71.82
2022-12-11T00:25:11.320Z,72.22
2022-12-11T00:27:14.451Z,73.04
2022-12-11T00:29:17.193Z,73.18
2022-12-11T00:31:21.123Z,73.48
2022-12-11T00:33:23.957Z,72.82
2022-12-11T00:35:26.808Z,73.48
2022-12-11T00:37:31.017Z,73.20
2022-12-11T00:39:34.076Z,72.69
2022-12-11T00:41:37.099Z,72.62
2022-12-11T00:43:40.051Z,73.06
2022-12-11T00:45:44.487Z,72.98
2022-12-11T00:47:47.350Z,72.33
2022-12-11T00:49:50.397Z,72.73
2022-12-11T00:51:53.511Z,72.94
2022-12-11T00:53:57.650Z,72.70
2022-12-11T00:56:00.692Z,72.72
2022-12-11T00:58:04.074Z,72.16
2022-12-11T01:00:08.319Z,72.71
2022-12-11T01:02:11.150Z,72.53
2022-12-11T01:04:14.035Z,71.86
2022-12-11T01:06:18.748Z,72.73
2022-12-11T01:08:22.032Z,72.44
2022-12-11T01:10:25.522Z,72.44
2022-12-11T01:12:28.543Z,72.21
2022-12-11T01:14:31.309Z,72.67
2022-12-11T01:16:34.286Z,72.17
2022-12-11T01:18:37.725Z,72.46
2022-12-11T01:20:42.508Z,72.40
2022-12-11T01:22:45.275Z,72.23
2022-12-11T01:24:48.332Z,72.59
2022-12-11T01:26:52.531Z,72.00
2022-12-11T01:28:55.298Z,72.72
2022-12-11T01:30:58.091Z,72.50
2022-12-11T01:33:01.175Z,72.05
2022-12-11T01:35:05.018Z,72.46
2022-12-11T01:37:07.780Z,71.86
2022-12-11T01:39:10.517Z,71.66
2022-12-11T01:41:13.613Z,71.94
2022-12-11T01:43:17.820Z,72.17
2022-12-11T01:45:33.723Z,72.35
2022-12-11T01:47:36.580Z,71.86
2022-12-11T01:49:41.162Z,71.44
2022-12-11T01:51:50.435Z,71.20
2022-12-11T01:53:56.963Z,71.38
2022-12-11T01:56:00.202Z,71.08
2022-12-11T01:58:03.819Z,71.36
2022-12-11T02:00:10.187Z,72.04
2022-12-11T02:02:20.385Z,70.75
2022-12-11T02:04:24.656Z,70.36
2022-12-11T02:06:32.701Z,70.48
2022-12-11T02:08:35.646Z,70.96
2022-12-11T02:10:49.978Z,71.87
2022-12-11T02:12:58.856Z,71.26
2022-12-11T02:15:13.464Z,72.22
2022-12-11T02:17:20.604Z,71.91
2022-12-11T02:19:39.670Z,72.41
2022-12-11T02:21:49.002Z,72.09
2022-12-11T02:24:08.132Z,72.16
2022-12-11T02:26:23.099Z,72.78
2022-12-11T02:28:33.117Z,72.29
2022-12-11T02:30:38.258Z,72.03
2022-12-11T02:32:48.775Z,71.75
2022-12-11T02:35:00.362Z,72.04
2022-12-11T02:37:07.255Z,71.73
2022-12-11T02:39:13.564Z,71.38
2022-12-11T02:41:16.438Z,71.24
2022-12-11T02:43:21.123Z,71.88
2022-12-11T02:45:27.071Z,71.61
2022-12-11T02:47:33.170Z,72.17
2022-12-11T02:49:36.988Z,72.35
2022-12-11T02:51:42.012Z,72.12
2022-12-11T02:53:46.060Z,72.17
2022-12-11T02:55:53.404Z,71.96
2022-12-11T02:58:04.219Z,71.87
2022-12-11T03:00:09.686Z,72.23
2022-12-11T03:02:16.465Z,71.72
2022-12-11T03:04:19.440Z,72.20
2022-12-11T03:06:27.641Z,72.30
2022-12-11T03:08:30.670Z,71.71
2022-12-11T03:10:33.742Z,71.72
2022-12-11T03:12:39.802Z,70.94
2022-12-11T03:14:44.346Z,71.05
2022-12-11T03:16:57.501Z,70.59
2022-12-11T03:19:11.762Z,71.00
2022-12-11T03:21:21.147Z,71.18
2022-12-11T03:23:29.509Z,71.12
2022-12-11T03:25:37.445Z,71.36
2022-12-11T03:27:45.999Z,71.55
2022-12-11T03:29:54.959Z,71.60
2022-12-11T03:32:03.855Z,72.06
2022-12-11T03:34:13.987Z,72.20
2022-12-11T03:36:21.552Z,72.45
2022-12-11T03:38:29.263Z,72.20
2022-12-11T03:40:35.601Z,71.85
2022-12-11T03:42:40.508Z,71.95
2022-12-11T03:44:45.314Z,71.91
2022-12-11T03:46:49.344Z,71.64
2022-12-11T03:48:54.692Z,71.25
2022-12-11T03:51:00.478Z,71.28
2022-12-11T03:53:05.810Z,71.21
2022-12-11T03:55:10.299Z,71.83
2022-12-11T03:57:16.972Z,72.27
2022-12-11T03:59:19.727Z,72.29
2022-12-11T04:01:22.530Z,71.68
2022-12-11T04:03:25.392Z,72.61
2022-12-11T04:05:28.195Z,72.61
2022-12-11T04:07:32.535Z,72.11
2022-12-11T04:09:36.236Z,72.20
2022-12-11T04:11:39.514Z,72.85
2022-12-11T04:13:42.594Z,72.54
2022-12-11T04:15:44.428Z,72.93
2022-12-11T04:18:04.590Z,72.96
2022-12-11T04:20:25.501Z,72.59
2022-12-11T04:22:45.760Z,73.03
2022-12-11T04:24:50.396Z,73.41
2022-12-11T04:26:53.226Z,72.80
2022-12-11T04:28:56.034Z,72.53
2022-12-11T04:30:58.882Z,72.99
2022-12-11T04:33:01.771Z,72.76
2022-12-11T04:35:05.486Z,73.38
2022-12-11T04:37:08.281Z,72.96
2022-12-11T04:39:11.132Z,72.69
2022-12-11T04:41:17.151Z,72.79
2022-12-11T04:43:19.992Z,73.44
2022-12-11T04:45:22.802Z,73.34
2022-12-11T04:47:25.691Z,73.32
2022-12-11T04:49:28.601Z,72.83
2022-12-11T04:51:31.431Z,72.96
2022-12-11T04:53:34.746Z,73.52
2022-12-11T04:55:37.572Z,73.15
2022-12-11T04:57:42.026Z,72.95
2022-12-11T04:59:44.915Z,72.58
2022-12-11T05:01:47.793Z,73.38
2022-12-11T05:03:50.729Z,73.50
2022-12-11T05:05:54.907Z,73.49
2022-12-11T05:07:58.207Z,73.15
2022-12-11T05:10:00.937Z,72.71
2022-12-11T05:12:04.160Z,72.69
2022-12-11T05:14:08.394Z,73.05
2022-12-11T05:16:13.971Z,72.90
2022-12-11T05:18:16.862Z,73.47
2022-12-11T05:20:19.734Z,73.28
2022-12-11T05:22:22.534Z,73.34
2022-12-11T05:24:25.412Z,73.36
2022-12-11T05:26:28.282Z,73.44
2022-12-11T05:28:33.824Z,73.33
2022-12-11T05:30:38.117Z,72.98
2022-12-11T05:32:40.932Z,72.41
2022-12-11T05:34:43.926Z,73.03
2022-12-11T05:36:47.261Z,72.28
2022-12-11T05:38:50.231Z,72.41
2022-12-11T05:40:59.959Z,72.73
2022-12-11T05:43:02.802Z,72.92
2022-12-11T05:45:06.576Z,73.33
2022-12-11T05:47:10.967Z,73.68
2022-12-11T05:49:13.966Z,73.21
2022-12-11T05:51:17.146Z,73.53
2022-12-11T05:53:19.937Z,72.74
2022-12-11T05:55:22.701Z,73.14
2022-12-11T05:57:25.827Z,73.70
2022-12-11T05:59:28.655Z,73.24
2022-12-11T06:01:34.340Z,72.46
2022-12-11T06:03:39.027Z,73.03
2022-12-11T06:05:43.244Z,73.40
2022-12-11T06:07:46.136Z,72.85
2022-12-11T06:09:48.989Z,73.62
2022-12-11T06:11:51.789Z,73.52
2022-12-11T06:13:54.717Z,72.55
2022-12-11T06:16:02.424Z,72.76
2022-12-11T06:18:05.418Z,72.55
2022-12-11T06:20:10.372Z,73.20
2022-12-11T06:22:13.060Z,72.58
2022-12-11T06:24:15.946Z,72.87
2022-12-11T06:26:20.030Z,73.22
2022-12-11T06:28:22.886Z,74.05
2022-12-11T06:30:38.612Z,72.98
2022-12-11T06:32:42.377Z,73.79
2022-12-11T06:34:45.200Z,73.08
2022-12-11T06:36:49.302Z,73.16
2022-12-11T06:38:52.593Z,72.80
2022-12-11T06:40:56.917Z,73.53
2022-12-11T06:42:59.668Z,73.76
2022-12-11T06:45:03.923Z,73.75
2022-12-11T06:47:06.839Z,73.24
2022-12-11T06:49:09.595Z,72.83
2022-12-11T06:51:14.383Z,73.00
2022-12-11T06:53:18.850Z,72.83
2022-12-11T06:55:22.031Z,72.50
2022-12-11T06:57:24.988Z,73.79
2022-12-11T06:59:27.849Z,73.13
2022-12-11T07:01:30.798Z,73.13
2022-12-11T07:03:33.555Z,72.96
2022-12-11T07:05:36.497Z,73.54
2022-12-11T07:07:39.527Z,73.70
2022-12-11T07:09:43.760Z,73.08
2022-12-11T07:11:46.691Z,73.67
2022-12-11T07:13:49.900Z,72.88
2022-12-11T07:15:52.717Z,72.73
2022-12-11T07:17:55.510Z,73.40
2022-12-11T07:19:58.361Z,72.83
2022-12-11T07:22:01.114Z,73.12
2022-12-11T07:24:04.786Z,72.60
2022-12-11T07:26:10.703Z,72.30
2022-12-11T07:28:16.651Z,73.14
2022-12-11T07:30:19.795Z,73.23
2022-12-11T07:32:22.778Z,73.40
2022-12-11T07:34:25.629Z,73.60
2022-12-11T07:36:30.092Z,73.17
2022-12-11T07:38:33.043Z,73.55
2022-12-11T07:40:35.966Z,72.31
2022-12-11T07:42:45.841Z,72.49
2022-12-11T07:44:49.126Z,72.17
2022-12-11T07:46:52.070Z,72.43
2022-12-11T07:48:55.203Z,72.28
2022-12-11T07:51:08.063Z,73.06
2022-12-11T07:53:11.010Z,73.36
2022-12-11T07:55:13.901Z,72.83
2022-12-11T07:57:16.748Z,71.80
2022-12-11T07:59:21.043Z,71.19
2022-12-11T08:01:26.382Z,71.38
2022-12-11T08:03:29.199Z,71.88
2022-12-11T08:05:32.009Z,72.40
2022-12-11T08:07:35.836Z,71.86
2022-12-11T08:09:38.726Z,71.64
2022-12-11T08:11:41.727Z,71.76
2022-12-11T08:13:44.555Z,73.19
2022-12-11T08:15:48.878Z,73.41
2022-12-11T08:17:51.708Z,72.17
2022-12-11T08:19:54.677Z,72.75
2022-12-11T08:21:57.496Z,72.31
2022-12-11T08:24:00.301Z,72.77
2022-12-11T08:26:04.094Z,73.27
2022-12-11T08:28:06.875Z,73.30
2022-12-11T08:30:10.464Z,71.71
2022-12-11T08:32:16.717Z,71.81
2022-12-11T08:34:20.679Z,72.95
2022-12-11T08:36:24.389Z,72.44
2022-12-11T08:38:27.195Z,72.55
2022-12-11T08:40:30.049Z,73.28
2022-12-11T08:42:33.943Z,73.07
2022-12-11T08:44:36.753Z,73.21
2022-12-11T08:46:39.772Z,72.52
2022-12-11T08:48:44.990Z,72.93
2022-12-11T08:50:47.831Z,72.88
2022-12-11T08:52:50.967Z,73.22
2022-12-11T08:54:53.841Z,72.70
2022-12-11T08:56:58.285Z,73.07
2022-12-11T08:59:02.054Z,72.44
2022-12-11T09:01:07.804Z,72.68
2022-12-11T09:03:12.976Z,73.12
2022-12-11T09:05:17.626Z,72.82
2022-12-11T09:07:20.556Z,72.65
2022-12-11T09:09:23.341Z,72.85
2022-12-11T09:11:28.125Z,72.16
2022-12-11T09:13:30.895Z,72.52
2022-12-11T09:15:33.853Z,72.46
2022-12-11T09:17:36.717Z,72.86
2022-12-11T09:19:39.467Z,72.35
2022-12-11T09:21:44.705Z,72.14
2022-12-11T09:23:48.320Z,72.40
2022-12-11T09:25:51.141Z,72.69
2022-12-11T09:27:54.027Z,72.83
2022-12-11T09:29:56.942Z,72.41
2022-12-11T09:32:00.071Z,72.66
2022-12-11T09:34:05.314Z,72.42
2022-12-11T09:36:08.895Z,73.00
2022-12-11T09:38:13.201Z,72.51
2022-12-11T09:40:16.264Z,72.72
2022-12-11T09:42:28.004Z,72.84
2022-12-11T09:44:39.139Z,72.33
2022-12-11T09:46:43.468Z,72.18
2022-12-11T09:48:48.856Z,72.58
2022-12-11T09:50:54.442Z,71.90
2022-12-11T09:53:06.787Z,71.99
2022-12-11T09:55:17.435Z,72.90
2022-12-11T09:57:31.073Z,72.75
2022-12-11T09:59:43.996Z,71.94
2022-12-11T10:01:53.173Z,71.66
2022-12-11T10:04:16.984Z,72.29
2022-12-11T10:06:26.407Z,72.23
2022-12-11T10:08:36.462Z,71.45
2022-12-11T10:10:44.561Z,71.10
2022-12-11T10:12:54.492Z,71.00
2022-12-11T10:15:15.911Z,71.22
2022-12-11T10:17:23.252Z,71.66
2022-12-11T10:19:28.927Z,71.63
2022-12-11T10:21:39.883Z,71.54
2022-12-11T10:23:47.080Z,71.55
2022-12-11T10:25:55.313Z,70.77
2022-12-11T10:27:58.507Z,71.08
2022-12-11T10:30:09.108Z,71.12
2022-12-11T10:32:22.023Z,70.94
2022-12-11T10:34:34.056Z,71.40
2022-12-11T10:36:40.295Z,71.38
2022-12-11T10:38:45.142Z,71.28
2022-12-11T10:40:50.987Z,71.23
2022-12-11T10:42:55.921Z,71.00
2022-12-11T10:45:00.460Z,70.51
2022-12-11T10:47:07.006Z,70.90
2022-12-11T10:49:23.038Z,70.89
2022-12-11T10:51:34.063Z,70.66
2022-12-11T10:53:37.256Z,70.25
2022-12-11T10:55:46.083Z,69.97
2022-12-11T10:57:59.296Z,69.70
2022-12-11T11:00:04.446Z,69.07
2022-12-11T11:02:17.158Z,69.19
2022-12-11T11:04:31.132Z,69.05
2022-12-11T11:06:34.860Z,68.22
2022-12-11T11:08:41.470Z,68.76
2022-12-11T11:10:54.936Z,69.14
2022-12-11T11:13:03.535Z,68.79
2022-12-11T11:15:12.625Z,67.96
2022-12-11T11:17:18.223Z,67.69
2022-12-11T11:19:24.843Z,67.76
2022-12-11T11:21:30.003Z,68.01
2022-12-11T11:23:33.026Z,68.13
2022-12-11T11:25:35.830Z,68.75
2022-12-11T11:27:44.922Z,69.18
2022-12-11T11:29:53.344Z,69.19
2022-12-11T11:31:56.565Z,68.99
2022-12-11T11:34:03.151Z,69.35
2022-12-11T11:36:08.860Z,69.44
2022-12-11T11:38:18.946Z,68.53
2022-12-11T11:40:28.040Z,69.01
2022-12-11T11:42:42.382Z,68.91
2022-12-11T11:44:53.709Z,69.83
2022-12-11T11:47:01.610Z,69.71
2022-12-11T11:49:11.628Z,69.57
2022-12-11T11:51:17.150Z,69.55
2022-12-11T11:53:25.383Z,69.11
2022-12-11T11:55:39.152Z,68.93
2022-12-11T11:57:46.923Z,68.30
2022-12-11T11:59:55.505Z,68.39
2022-12-11T12:01:59.583Z,68.66
2022-12-11T12:04:05.201Z,68.90
2022-12-11T12:06:19.510Z,69.14
2022-12-11T12:08:37.354Z,69.73
2022-12-11T12:10:48.791Z,70.00
2022-12-11T12:12:58.309Z,70.40
2022-12-11T12:15:18.244Z,70.45
2022-12-11T12:17:27.938Z,69.88
2022-12-11T12:19:43.912Z,69.73
2022-12-11T12:21:50.280Z,68.46
2022-12-11T12:24:06.487Z,68.92
2022-12-11T12:26:15.876Z,69.64
2022-12-11T12:28:28.853Z,69.87
2022-12-11T12:30:43.834Z,69.75
2022-12-11T12:32:58.508Z,70.21
2022-12-11T12:35:32.299Z,70.58
2022-12-11T12:37:45.649Z,70.46
2022-12-11T12:39:57.692Z,70.39
2022-12-11T12:42:08.293Z,70.73
2022-12-11T12:44:15.635Z,70.71
2022-12-11T12:46:29.795Z,70.81
2022-12-11T12:48:34.073Z,70.63
2022-12-11T12:50:41.508Z,70.01
2022-12-11T12:52:45.254Z,69.80
2022-12-11T12:55:06.174Z,70.01
2022-12-11T12:57:09.471Z,69.59
2022-12-11T12:59:23.771Z,68.98
2022-12-11T13:01:30.413Z,69.90
2022-12-11T13:03:38.161Z,69.97
2022-12-11T13:05:44.210Z,69.74
2022-12-11T13:07:54.405Z,69.55
2022-12-11T13:10:04.664Z,69.90
2022-12-11T13:12:15.488Z,68.84
2022-12-11T13:14:31.821Z,68.98
2022-12-11T13:16:40.494Z,68.75
2022-12-11T13:18:45.053Z,69.01
2022-12-11T13:20:50.968Z,69.25
2022-12-11T13:23:11.630Z,69.60
2022-12-11T13:25:30.094Z,69.07
2022-12-11T13:27:39.051Z,69.56
2022-12-11T13:29:43.449Z,69.33
2022-12-11T13:31:58.263Z,69.46
2022-12-11T13:34:10.252Z,69.04
2022-12-11T13:36:30.085Z,68.28
2022-12-11T13:38:33.162Z,68.43
2022-12-11T13:40:40.526Z,68.21
2022-12-11T13:42:50.887Z,67.50
2022-12-11T13:44:53.837Z,67.47
2022-12-11T13:47:01.318Z,67.09
2022-12-11T13:49:06.815Z,67.42
2022-12-11T13:51:17.038Z,68.11
2022-12-11T13:53:21.204Z,68.27
2022-12-11T13:55:27.276Z,68.02
2022-12-11T13:57:30.074Z,68.53
2022-12-11T13:59:36.386Z,68.40
2022-12-11T14:01:40.434Z,68.45
2022-12-11T14:03:51.697Z,68.36
2022-12-11T14:05:55.189Z,68.28
2022-12-11T14:08:00.583Z,68.70
2022-12-11T14:10:09.445Z,69.31
2022-12-11T14:12:17.603Z,68.19
2022-12-11T14:14:23.381Z,68.45
2022-12-11T14:16:27.300Z,68.56
2022-12-11T14:18:32.633Z,69.04
2022-12-11T14:20:36.862Z,68.94
2022-12-11T14:22:39.720Z,69.20
2022-12-11T14:24:50.449Z,69.43
2022-12-11T14:26:54.571Z,69.52
2022-12-11T14:28:57.546Z,69.23
2022-12-11T14:31:03.729Z,69.06
2022-12-11T14:33:07.509Z,68.41
2022-12-11T14:35:26.365Z,69.10
2022-12-11T14:37:31.272Z,68.12
2022-12-11T14:39:39.209Z,68.10
2022-12-11T14:41:47.898Z,68.81
2022-12-11T14:43:54.562Z,68.87
2022-12-11T14:46:02.093Z,69.30
2022-12-11T14:48:09.648Z,69.33
2022-12-11T14:50:20.481Z,69.57
2022-12-11T14:52:26.735Z,69.13
2022-12-11T14:54:34.689Z,69.26
2022-12-11T14:56:38.329Z,69.02
2022-12-11T14:58:46.096Z,68.76
2022-12-11T15:00:58.216Z,68.73
2022-12-11T15:03:03.972Z,69.10
2022-12-11T15:05:17.836Z,68.73
2022-12-11T15:07:22.569Z,69.22
2022-12-11T15:09:28.481Z,69.18
2022-12-11T15:11:33.531Z,69.23
2022-12-11T15:13:38.472Z,69.02
2022-12-11T15:15:45.697Z,69.11
2022-12-11T15:17:52.897Z,69.68
2022-12-11T15:20:02.199Z,69.50
2022-12-11T15:22:07.567Z,69.87
2022-12-11T15:24:24.511Z,69.42
2022-12-11T15:26:36.791Z,70.08
2022-12-11T15:28:40.246Z,69.12
2022-12-11T15:30:43.094Z,69.73
2022-12-11T15:32:46.181Z,69.40
2022-12-11T15:34:51.425Z,69.37
2022-12-11T15:36:54.285Z,69.37
2022-12-11T15:38:57.250Z,69.58
2022-12-11T15:41:00.887Z,69.05
2022-12-11T15:43:05.114Z,69.21
2022-12-11T15:45:10.525Z,69.17
2022-12-11T15:47:15.362Z,69.41
2022-12-11T15:49:19.022Z,69.39
2022-12-11T15:51:22.860Z,69.33
2022-12-11T15:53:25.802Z,69.31
2022-12-11T15:55:34.219Z,69.25
2022-12-11T15:57:37.817Z,68.68
2022-12-11T15:59:42.051Z,69.20
2022-12-11T16:01:45.420Z,69.33
2022-12-11T16:03:50.293Z,69.44
2022-12-11T16:05:54.104Z,69.14
2022-12-11T16:07:59.433Z,68.74
2022-12-11T16:10:02.614Z,69.01
2022-12-11T16:12:05.864Z,69.13
2022-12-11T16:14:08.720Z,69.09
2022-12-11T16:16:12.911Z,69.19
2022-12-11T16:18:18.376Z,69.08
2022-12-11T16:20:21.678Z,69.45
2022-12-11T16:22:24.623Z,69.53
2022-12-11T16:24:27.717Z,69.19
2022-12-11T16:26:30.542Z,69.55
2022-12-11T16:28:33.908Z,69.50
2022-12-11T16:30:38.501Z,69.73
2022-12-11T16:32:42.736Z,69.14
2022-12-11T16:34:45.648Z,69.36
2022-12-11T16:36:48.451Z,69.61
2022-12-11T16:38:53.763Z,70.11
2022-12-11T16:41:03.397Z,69.32
2022-12-11T16:43:06.650Z,69.53
2022-12-11T16:45:13.799Z,69.48
2022-12-11T16:47:16.792Z,69.45
2022-12-11T16:49:21.302Z,69.89
2022-12-11T16:51:24.608Z,69.81
2022-12-11T16:53:27.661Z,69.66
2022-12-11T16:55:31.301Z,69.89
2022-12-11T16:57:34.580Z,69.19
2022-12-11T16:59:37.882Z,69.57
2022-12-11T17:01:40.979Z,68.92
2022-12-11T17:03:44.712Z,69.25
2022-12-11T17:05:48.911Z,69.02
2022-12-11T17:07:51.875Z,68.98
2022-12-11T17:09:54.721Z,69.11
2022-12-11T17:11:57.886Z,69.11
2022-12-11T17:14:01.537Z,69.28
2022-12-11T17:16:06.284Z,69.75
2022-12-11T17:18:09.354Z,69.27
2022-12-11T17:20:12.516Z,69.21
2022-12-11T17:22:16.729Z,69.50
2022-12-11T17:24:19.670Z,69.43
2022-12-11T17:26:25.154Z,69.41
2022-12-11T17:28:28.154Z,69.25
2022-12-11T17:30:31.009Z,69.04
2022-12-11T17:32:33.841Z,68.27
2022-12-11T17:34:38.541Z,68.65
2022-12-11T17:36:41.520Z,68.21
2022-12-11T17:38:46.589Z,68.87
2022-12-11T17:40:49.512Z,69.12
2022-12-11T17:42:53.106Z,69.29
2022-12-11T17:44:55.917Z,69.44
2022-12-11T17:46:58.868Z,69.37
2022-12-11T17:49:03.183Z,69.61
2022-12-11T17:51:08.200Z,69.76
2022-12-11T17:53:11.169Z,69.32
2022-12-11T17:55:15.776Z,69.57
2022-12-11T17:57:18.862Z,69.00
2022-12-11T17:59:21.671Z,68.84
2022-12-11T18:01:24.515Z,68.38
2022-12-11T18:03:28.811Z,67.94
2022-12-11T18:05:31.819Z,67.38
2022-12-11T18:07:37.100Z,67.88
2022-12-11T18:09:40.647Z,67.90
2022-12-11T18:11:44.784Z,68.36
2022-12-11T18:13:48.809Z,68.49
2022-12-11T18:16:00.531Z,68.05
2022-12-11T18:18:03.425Z,68.17
2022-12-11T18:20:06.842Z,68.14
2022-12-11T18:22:09.757Z,68.14
2022-12-11T18:24:13.028Z,67.89
2022-12-11T18:26:15.871Z,67.86
2022-12-11T18:28:20.238Z,67.71
2022-12-11T18:30:24.073Z,67.83
2022-12-11T18:32:26.917Z,68.09
2022-12-11T18:34:29.920Z,68.32
2022-12-11T18:36:33.900Z,68.29
2022-12-11T18:38:36.695Z,68.46
2022-12-11T18:40:39.495Z,68.55
2022-12-11T18:42:42.398Z,68.14
2022-12-11T18:44:46.575Z,67.80
2022-12-11T18:46:49.579Z,67.87
2022-12-11T18:48:52.447Z,67.59
2022-12-11T18:50:55.254Z,67.47
2022-12-11T18:52:58.090Z,67.55
2022-12-11T18:55:01.028Z,67.44
2022-12-11T18:57:04.271Z,67.46
2022-12-11T18:59:07.084Z,67.63
2022-12-11T19:01:13.835Z,67.49
2022-12-11T19:03:19.941Z,67.21
2022-12-11T19:05:22.748Z,67.48
2022-12-11T19:07:25.598Z,67.03
2022-12-11T19:09:28.402Z,67.52
2022-12-11T19:11:32.968Z,67.32
2022-12-11T19:13:36.375Z,67.13
2022-12-11T19:15:40.202Z,66.76
2022-12-11T19:17:44.347Z,67.05
2022-12-11T19:19:48.304Z,66.66
2022-12-11T19:21:51.645Z,66.50
2022-12-11T19:23:55.000Z,66.36
2022-12-11T19:25:57.844Z,66.41
2022-12-11T19:28:00.720Z,66.77
2022-12-11T19:30:03.917Z,67.56
2022-12-11T19:32:06.938Z,67.43
2022-12-11T19:34:11.217Z,67.57
2022-12-11T19:36:16.598Z,67.80
2022-12-11T19:38:19.514Z,68.30
2022-12-11T19:40:26.075Z,67.88
2022-12-11T19:42:29.979Z,67.82
2022-12-11T19:44:33.038Z,67.78
2022-12-11T19:46:37.118Z,68.12
2022-12-11T19:48:41.485Z,68.30
2022-12-11T19:50:45.705Z,68.46
2022-12-11T19:52:48.629Z,68.76
2022-12-11T19:54:51.423Z,68.59
2022-12-11T19:56:54.492Z,68.46
2022-12-11T19:58:57.819Z,68.61
2022-12-11T20:01:01.192Z,68.36
2022-12-11T20:03:04.490Z,68.50
2022-12-11T20:05:08.757Z,68.60
2022-12-11T20:07:13.644Z,68.98
2022-12-11T20:09:16.948Z,69.09
2022-12-11T20:11:19.814Z,68.45
2022-12-11T20:13:22.883Z,68.51
2022-12-11T20:15:26.547Z,68.80
2022-12-11T20:17:29.358Z,68.71
2022-12-11T20:19:32.425Z,69.33
2022-12-11T20:21:35.178Z,69.04
2022-12-11T20:23:39.347Z,68.65
2022-12-11T20:25:42.120Z,68.97
2022-12-11T20:27:45.127Z,69.33
2022-12-11T20:29:47.929Z,69.45
2022-12-11T20:31:51.046Z,69.57
2022-12-11T20:33:56.586Z,69.50
2022-12-11T20:35:59.420Z,69.07
2022-12-11T20:38:02.200Z,69.37
2022-12-11T20:40:07.874Z,69.25
2022-12-11T20:42:11.033Z,69.31
2022-12-11T20:44:13.866Z,69.44
2022-12-11T20:46:20.243Z,69.45
2022-12-11T20:48:23.399Z,69.27
2022-12-11T20:50:26.276Z,68.86
2022-12-11T20:52:29.080Z,68.76
2022-12-11T20:54:31.945Z,69.28
2022-12-11T20:56:36.289Z,69.15
2022-12-11T20:58:39.391Z,69.21
2022-12-11T21:00:43.785Z,69.35
2022-12-11T21:02:46.710Z,69.69
2022-12-11T21:04:49.526Z,69.76
2022-12-11T21:06:55.436Z,69.58
2022-12-11T21:08:59.606Z,69.60
2022-12-11T21:11:02.529Z,69.30
2022-12-11T21:13:06.776Z,69.59
2022-12-11T21:15:11.133Z,69.49
2022-12-11T21:17:14.261Z,69.79
2022-12-11T21:19:17.407Z,69.48
2022-12-11T21:21:20.342Z,69.32
2022-12-11T21:23:23.287Z,69.46
2022-12-11T21:25:26.217Z,68.97
2022-12-11T21:27:29.294Z,69.15
2022-12-11T21:29:33.587Z,68.95
2022-12-11T21:31:36.537Z,69.27
2022-12-11T21:33:39.989Z,69.01
2022-12-11T21:35:43.245Z,69.17
2022-12-11T21:37:46.095Z,69.90
2022-12-11T21:39:50.424Z,69.31
2022-12-11T21:41:53.341Z,69.71
2022-12-11T21:46:23.940Z,69.68
2022-12-11T21:48:26.789Z,69.99
2022-12-11T21:50:29.584Z,69.96
2022-12-11T21:52:32.465Z,69.88
2022-12-11T21:54:35.911Z,70.09
2022-12-11T21:56:38.756Z,70.50
2022-12-11T21:58:43.137Z,70.33
2022-12-11T22:00:46.563Z,70.68
2022-12-11T22:02:51.387Z,70.34
2022-12-11T22:04:54.368Z,70.57
2022-12-11T22:06:57.913Z,70.19
2022-12-11T22:09:00.840Z,70.61
2022-12-11T22:11:03.791Z,70.75
2022-12-11T22:13:07.402Z,70.74
2022-12-11T22:15:10.939Z,70.55
2022-12-11T22:17:13.979Z,70.40
2022-12-11T22:19:18.111Z,71.04
2022-12-11T22:21:21.233Z,70.99
2022-12-11T22:23:24.927Z,71.34
2022-12-11T22:25:27.841Z,71.60
2022-12-11T22:27:30.670Z,71.29
2022-12-11T22:29:34.792Z,71.53
2022-12-11T22:31:37.745Z,71.53
2022-12-11T22:33:41.078Z,71.98
2022-12-11T22:35:45.297Z,72.06
2022-12-11T22:37:48.502Z,71.76
2022-12-11T22:39:51.458Z,71.87
2022-12-11T22:41:54.312Z,72.04
2022-12-11T22:43:58.024Z,71.94
2022-12-11T22:46:00.880Z,71.92
2022-12-11T22:48:04.102Z,72.11
2022-12-11T22:50:07.933Z,71.63
2022-12-11T22:52:12.108Z,72.15
2022-12-11T22:54:14.927Z,71.63
2022-12-11T22:56:18.069Z,71.85
2022-12-11T22:58:22.055Z,71.62
2022-12-11T23:00:25.297Z,71.99
2022-12-11T23:02:28.352Z,72.10
2022-12-11T23:04:31.269Z,71.54
2022-12-11T23:06:34.095Z,71.40
2022-12-11T23:08:38.321Z,71.54
2022-12-11T23:10:41.828Z,71.74
2022-12-11T23:12:44.713Z,71.93
2022-12-11T23:14:47.586Z,71.96
2022-12-11T23:16:51.326Z,72.37
2022-12-11T23:18:54.758Z,72.34
2022-12-11T23:20:57.445Z,72.71
2022-12-11T23:23:00.277Z,72.47
2022-12-11T23:25:05.320Z,72.25
2022-12-11T23:27:08.354Z,72.06
2022-12-11T23:29:11.230Z,72.09
2022-12-11T23:31:14.338Z,71.21
2022-12-11T23:33:17.242Z,71.60
2022-12-11T23:35:20.069Z,71.62
2022-12-11T23:37:22.873Z,71.61
2022-12-11T23:39:25.753Z,71.52
2022-12-11T23:41:30.092Z,71.15
2022-12-11T23:43:34.432Z,71.18
2022-12-11T23:45:37.258Z,71.28
2022-12-11T23:47:40.039Z,71.26
2022-12-11T23:49:42.768Z,71.05
2022-12-11T23:51:45.627Z,70.65
2022-12-11T23:53:48.546Z,70.89
2022-12-11T23:55:51.313Z,71.10
2022-12-11T23:57:55.481Z,71.16
2022-12-11T23:59:58.243Z,71.63
